Date,TemperatureHighF,TemperatureAvgF,TemperatureLowF,DewpointHighF,DewpointAvgF,DewpointLowF,HumidityHigh,HumidityAvg,HumidityLow,PressureMaxIn,PressureMinIn,WindSpeedMaxMPH,WindSpeedAvgMPH,GustSpeedMaxMPH,PrecipitationSumIn
2012-1-3,27.2,20.8,14.0,6.6,2.9,-2.6,59,46,30,30.37,30.27,21,5,21,0.00
2012-1-4,48.8,29.8,15.7,23.5,9.2,2.4,68,44,21,30.42,30.13,22,3,22,0.00
2012-1-5,55.7,43.0,34.0,28.2,22.6,17.1,76,48,23,30.13,30.03,16,3,16,0.00
2012-1-6,63.4,44.5,29.3,30.3,20.8,13.6,72,43,15,30.15,29.99,10,1,10,0.00
2012-1-7,59.9,52.1,46.8,50.9,44.8,30.0,88,77,52,30.05,29.92,14,1,14,0.00
2012-1-8,50.2,48.6,47.3,46.9,45.7,44.6,96,90,84,30.14,30.04,5,0,5,0.00
2012-1-9,56.3,52.8,49.1,56.3,51.5,49.1,100,96,84,30.14,30.00,8,1,8,0.00
2012-1-10,53.8,50.9,48.0,50.9,49.2,46.3,100,94,86,30.06,29.87,12,1,12,0.00
2012-1-11,53.3,47.9,42.8,53.2,46.9,41.2,100,96,78,29.87,29.40,30,6,30,0.00
2012-1-12,51.1,39.6,21.3,42.8,35.0,10.7,98,84,62,29.78,29.52,33,5,33,0.00
2012-1-13,30.6,23.3,19.1,17.1,14.0,11.0,76,68,53,30.16,29.77,17,2,17,0.00
2012-1-14,21.4,21.0,20.8,14.1,13.6,13.4,75,73,72,30.17,30.15,12,2,12,0.00
2012-1-16,42.5,39.7,35.9,28.9,25.7,17.5,68,57,46,30.53,30.34,20,1,20,0.00
2012-1-17,52.5,48.0,40.6,50.3,43.4,28.1,99,85,60,30.34,29.89,31,6,31,0.00
2012-1-18,48.5,36.1,28.2,48.0,28.0,21.5,98,73,54,30.09,29.90,19,4,19,0.00
2012-1-19,40.8,35.0,27.8,25.4,22.7,20.2,78,61,47,30.18,30.06,12,1,12,0.00
2012-1-20,44.5,40.0,33.8,44.5,36.0,23.6,100,86,54,30.13,30.00,9,0,9,0.00
2012-1-21,55.6,48.8,43.2,55.6,48.7,43.2,100,99,95,30.00,29.82,21,3,21,0.00
2012-1-22,45.4,43.5,42.3,44.9,43.4,42.0,100,100,97,30.19,30.13,12,4,12,0.00
2012-1-23,47.3,42.2,38.0,47.3,42.2,38.0,100,100,100,30.13,29.99,20,5,20,0.00
2012-1-24,57.2,46.4,37.3,46.7,34.1,16.8,100,70,22,30.24,30.03,17,3,17,0.00
2012-1-25,60.2,52.5,36.8,38.4,34.2,25.3,72,51,35,30.30,30.11,15,3,15,0.00
2012-1-26,55.9,52.6,50.5,55.7,49.5,37.6,100,90,59,30.11,29.69,33,7,33,0.00
2012-1-27,51.9,44.6,35.5,43.3,34.5,30.1,86,68,46,30.04,29.70,19,3,19,0.00
2012-1-28,41.9,33.4,29.4,30.9,29.0,26.7,93,84,63,30.13,30.01,14,1,14,0.00
2012-1-30,59.8,48.6,38.0,22.6,18.3,12.4,48,30,22,30.42,30.27,18,3,18,0.00
2012-1-31,62.9,46.4,33.1,27.7,21.1,14.3,62,39,18,30.41,30.24,18,2,18,0.00
2012-2-1,54.1,49.1,46.0,48.8,43.4,25.3,100,83,41,30.26,30.05,13,0,13,0.00
2012-2-2,60.4,52.3,42.9,49.9,38.0,21.8,100,64,25,30.27,30.01,17,3,17,0.00
2012-2-3,56.0,45.7,35.0,31.2,27.1,17.8,79,51,26,30.41,30.27,14,1,14,0.00
2012-2-4,51.7,45.2,40.3,51.3,41.9,27.4,100,90,48,30.29,30.06,7,0,7,0.00
2012-2-5,60.5,57.3,53.2,51.5,47.8,42.7,91,71,57,29.99,29.94,13,4,13,0.00
2012-2-7,59.2,48.8,38.9,33.7,27.6,17.6,69,47,20,30.15,30.06,5,0,7,0.00
2012-2-8,50.4,40.8,35.9,31.7,29.4,26.9,76,64,43,30.18,30.08,12,2,17,0.00
2012-2-9,46.4,38.7,30.3,29.8,27.0,23.6,77,63,51,30.28,30.15,13,2,13,0.00
2012-2-10,48.3,38.1,29.5,32.0,27.5,25.2,85,66,43,30.16,29.87,11,0,11,0.00
2012-2-11,39.5,36.0,33.1,29.0,28.1,25.1,78,73,65,29.87,29.78,14,1,14,0.00
2012-2-12,38.8,30.5,23.9,10.1,7.1,-1.6,54,38,27,30.34,30.25,8,3,14,0.00
2012-2-13,47.7,33.2,17.5,14.9,12.0,9.2,72,44,25,30.31,30.10,14,1,14,0.00
2012-2-14,38.0,34.8,31.0,37.7,34.1,29.2,99,97,93,30.13,30.01,10,0,10,0.00
2012-2-15,61.3,42.6,31.8,44.9,34.2,28.6,100,78,32,30.28,30.13,12,1,12,0.00
2012-2-16,53.1,49.1,45.2,52.8,46.0,40.9,100,90,71,30.09,29.97,14,1,14,0.00
2012-2-17,58.9,49.8,37.5,41.3,36.7,24.2,97,65,27,30.13,30.00,11,1,11,0.00
2012-2-18,58.4,49.3,40.8,43.3,40.5,37.7,93,73,48,30.07,29.87,11,0,11,0.00
2012-2-20,53.9,42.8,31.0,34.4,28.5,18.2,87,58,36,30.28,30.14,17,2,17,0.00
2012-2-21,51.3,41.2,34.0,39.4,32.0,21.5,81,70,52,30.25,30.00,17,3,18,0.00
2012-2-22,62.7,52.3,44.8,49.1,40.0,25.4,94,64,43,30.00,29.55,33,6,33,0.00
2012-2-23,70.8,63.4,51.7,54.2,51.4,48.0,88,66,49,29.64,29.51,33,10,33,0.00
2012-2-24,64.2,53.4,34.6,56.1,39.9,13.4,85,62,26,29.95,29.52,22,5,22,0.00
2012-2-25,49.1,37.8,29.4,20.2,12.6,5.4,55,37,19,30.29,29.95,33,2,33,0.00
2012-2-26,49.9,38.5,27.2,22.2,15.9,9.3,62,41,27,30.45,30.28,16,1,16,0.00
2012-2-27,60.1,49.0,38.6,44.8,36.5,22.0,81,63,46,30.42,30.24,10,0,10,0.00
2012-2-28,65.0,51.2,39.3,47.3,39.5,32.8,92,66,38,30.38,30.19,15,1,16,0.00
2012-2-29,66.0,55.5,49.4,57.7,53.4,47.2,100,93,72,30.19,29.80,32,7,32,0.00
2012-3-1,72.5,61.7,54.8,55.4,42.8,22.2,92,58,17,29.86,29.76,26,4,26,0.00
2012-3-2,62.4,60.1,57.5,59.5,57.1,54.5,99,90,83,29.80,29.60,32,11,32,0.00
2012-3-3,57.8,49.4,43.3,56.1,38.0,9.4,99,72,22,29.74,29.53,19,4,19,0.00
2012-3-5,47.4,40.3,31.6,19.1,12.1,6.9,45,32,21,30.44,30.02,39,2,39,0.00
2012-3-6,55.4,39.5,26.6,22.3,17.1,11.4,63,41,25,30.60,30.44,18,2,18,0.00
2012-3-7,55.1,48.2,42.1,45.8,37.9,19.3,89,69,40,30.55,30.36,19,2,19,0.00
2012-3-8,63.7,56.8,50.5,53.9,49.3,45.4,96,77,58,30.36,30.06,21,4,21,0.00
2012-3-9,55.3,49.9,40.6,52.4,30.0,17.1,97,51,24,30.30,30.07,19,2,19,0.00
2012-3-10,40.9,39.8,38.9,23.1,22.5,21.6,52,50,46,30.30,30.30,1,0,1,0.00
2012-3-12,51.7,51.0,49.1,51.6,50.5,48.2,100,98,89,30.35,30.24,10,2,10,0.00
2012-3-13,74.6,63.4,51.4,61.6,49.6,42.3,100,65,35,30.24,30.07,20,2,20,0.00
2012-3-14,76.3,65.9,52.6,51.5,45.4,37.7,81,50,27,30.23,30.10,13,2,13,0.00
2012-3-15,75.6,64.2,52.9,57.7,50.6,45.2,79,62,42,30.25,30.13,16,2,16,0.00
2012-3-16,79.0,60.8,49.8,56.6,51.2,47.1,100,74,35,30.23,30.06,18,2,18,0.00
2012-3-17,58.0,56.7,55.6,50.6,49.1,48.1,83,76,72,30.15,30.10,5,0,5,0.00
2012-3-19,79.4,69.2,55.0,56.7,52.4,47.1,92,57,34,30.17,30.02,17,3,17,0.00
2012-3-20,77.9,67.8,57.0,57.5,52.3,49.6,81,59,38,30.13,30.02,17,2,17,0.00
2012-3-21,71.3,63.7,57.8,56.8,53.6,50.0,91,71,49,30.19,30.09,14,1,14,0.00
2012-3-22,71.1,62.7,58.3,59.2,56.8,52.8,98,82,62,30.19,30.08,13,2,13,0.00
2012-3-23,64.3,61.0,58.6,61.7,58.5,55.1,100,92,78,30.11,29.89,21,4,21,0.00
2012-3-24,68.8,57.6,49.4,57.8,49.4,38.5,99,77,34,29.90,29.69,26,4,26,0.00
2012-3-26,73.9,66.7,53.9,46.7,39.3,31.7,72,39,22,30.01,29.89,17,4,17,0.00
2012-3-27,68.6,57.4,49.1,44.7,39.7,31.4,79,54,32,30.21,29.99,16,3,16,0.00
2012-3-28,76.3,66.6,50.5,54.4,49.4,42.3,78,55,43,30.16,29.94,20,3,20,0.00
2012-3-29,70.3,66.3,61.2,53.5,52.2,50.1,68,61,55,29.92,29.90,12,3,12,0.00
2012-4-2,81.1,75.3,65.2,57.0,52.1,45.4,70,46,30,29.80,29.69,21,4,21,0.00
2012-4-3,78.5,63.9,56.3,63.4,56.7,54.6,99,79,52,29.91,29.79,15,1,15,0.00
2012-4-4,75.6,60.4,53.2,58.7,55.3,53.2,100,86,48,29.88,29.64,10,1,10,0.00
2012-4-5,73.7,65.0,51.9,57.9,53.3,43.8,98,68,43,29.66,29.54,13,2,13,0.00
2012-4-6,51.7,50.9,49.6,51.2,50.4,49.1,98,98,98,29.68,29.64,8,2,8,0.00
2012-4-9,74.2,63.1,50.4,32.6,26.3,14.2,49,26,11,30.06,29.91,24,3,24,0.00
2012-4-10,71.5,58.9,51.1,41.2,30.6,19.8,48,34,28,29.97,29.84,31,3,31,0.00
2012-4-11,57.8,49.0,39.6,24.5,19.1,11.7,49,31,17,30.09,29.85,19,3,19,0.00
2012-4-12,62.0,44.3,29.5,28.3,22.7,19.3,72,46,23,30.23,30.07,12,1,12,0.00
2012-4-13,67.1,58.1,39.8,35.1,29.8,21.9,71,36,20,30.22,30.12,13,2,13,0.00
2012-4-14,54.5,53.1,51.4,31.2,30.0,29.1,44,41,38,30.20,30.18,6,2,6,0.00
2012-4-16,75.6,66.5,58.4,59.0,56.9,53.1,91,72,49,30.14,30.06,22,2,22,0.00
2012-4-17,78.3,63.9,54.5,60.0,55.4,52.1,98,76,43,30.14,29.98,17,2,17,0.00
2012-4-18,56.2,54.1,52.0,56.0,54.1,52.0,100,100,98,30.05,29.95,8,1,8,0.00
2012-4-19,64.3,56.4,51.3,56.5,53.1,51.3,100,90,70,30.02,29.93,16,2,16,0.00
2012-4-20,64.2,56.0,52.2,55.7,52.8,50.8,98,90,70,29.96,29.82,10,1,10,0.00
2012-4-21,67.8,58.0,53.8,59.2,55.9,52.5,100,93,69,29.85,29.63,8,1,8,0.00
2012-4-22,62.4,51.1,38.8,53.6,41.5,24.3,99,72,36,29.68,29.49,24,4,24,0.00
2012-4-23,51.9,42.4,35.6,28.3,23.6,17.7,70,49,29,29.80,29.60,26,4,26,0.00
2012-4-24,57.8,48.3,40.9,41.1,31.2,20.2,83,53,29,29.87,29.74,22,2,22,0.00
2012-4-25,76.0,64.0,45.5,59.0,53.1,40.6,98,70,45,29.87,29.78,21,2,21,0.00
2012-4-26,67.8,60.8,54.7,62.8,56.7,52.6,100,87,73,29.91,29.76,20,2,20,0.00
2012-4-27,74.2,63.6,55.3,64.7,59.3,55.3,100,88,59,30.00,29.85,13,0,13,0.00
2012-4-28,73.3,65.0,56.2,62.1,59.6,56.0,100,84,62,30.05,29.96,14,1,14,0.00
2012-4-29,82.2,67.8,57.6,64.3,60.1,53.3,100,80,41,30.10,29.99,14,1,14,0.00
2012-4-30,81.8,70.0,59.5,63.9,59.4,56.3,94,71,51,30.12,30.00,20,2,20,0.00
2012-5-1,80.3,70.3,61.5,65.0,61.7,56.5,93,75,54,30.09,29.98,14,2,14,0.00
2012-5-2,84.1,72.3,62.6,65.4,61.1,57.5,90,70,43,30.08,29.98,12,2,12,0.00
2012-5-3,83.0,70.0,60.5,62.9,59.9,55.1,92,72,41,30.09,29.99,11,1,11,0.00
2012-5-4,77.6,67.8,60.1,65.2,60.8,58.1,99,79,55,30.08,29.91,7,0,7,0.00
2012-5-5,81.6,69.2,57.6,63.7,58.1,54.2,100,71,42,29.93,29.80,14,1,14,0.00
2012-5-6,82.0,67.8,58.4,64.3,59.6,55.4,97,76,48,29.94,29.83,11,1,11,0.00
2012-5-7,73.7,64.8,60.7,63.7,61.2,59.3,99,89,67,29.97,29.86,11,1,12,0.00
2012-5-8,76.3,66.0,59.9,66.0,61.0,57.6,100,85,55,29.89,29.75,17,2,17,0.00
2012-5-9,62.1,58.4,54.5,60.5,54.5,43.6,100,88,61,29.82,29.71,14,1,14,0.00
2012-5-10,64.3,57.4,47.7,46.6,39.9,31.7,78,54,30,29.94,29.77,17,2,17,0.00
2012-5-11,70.3,57.8,43.8,50.2,44.6,39.1,87,63,41,30.16,29.94,14,0,14,0.00
2012-5-12,65.2,59.4,54.5,57.6,51.9,43.6,94,77,60,30.27,30.14,13,1,13,0.00
2012-5-13,59.0,56.1,54.7,57.2,55.0,52.3,100,96,80,30.19,30.00,11,1,11,0.00
2012-5-14,69.6,61.2,57.2,64.7,60.3,57.2,100,97,79,30.00,29.84,12,1,12,0.00
2012-5-15,73.3,62.1,56.0,65.3,58.9,55.1,100,90,64,29.96,29.86,9,0,9,0.00
2012-5-16,72.3,62.0,54.8,61.9,56.1,46.2,100,83,43,29.97,29.86,11,1,11,0.00
2012-5-17,75.3,63.7,53.2,61.1,56.5,51.9,100,79,52,29.98,29.88,10,1,10,0.00
2012-5-18,71.6,62.0,56.0,63.5,59.1,56.0,100,91,68,30.05,29.95,10,1,10,0.00
2012-5-19,74.2,63.2,56.5,66.9,59.4,54.5,100,89,59,30.11,29.99,11,1,11,0.00
2012-5-20,77.6,63.9,54.4,62.6,56.8,51.4,100,81,49,30.12,29.98,10,1,10,0.00
2012-5-21,78.5,64.0,55.1,64.0,56.0,50.3,89,76,51,30.02,29.86,10,0,10,0.00
2012-5-22,73.5,61.5,57.2,62.8,58.2,55.4,100,89,64,29.87,29.77,8,1,8,0.00
2012-5-23,69.3,61.5,55.6,64.1,59.1,55.4,100,92,73,29.88,29.78,7,0,7,0.00
2012-5-24,78.8,65.7,55.7,67.1,59.2,54.8,100,82,49,29.98,29.87,11,1,11,223.11
2012-5-25,83.4,71.9,61.3,69.8,62.4,57.8,93,73,54,30.06,29.95,7,0,7,126.72
2012-5-26,84.3,72.4,60.9,68.7,63.9,59.8,98,76,52,30.11,30.01,11,1,11,190.48
2012-5-27,81.4,72.1,63.5,69.2,63.2,60.1,94,75,50,30.05,29.96,9,0,10,0.00
2012-5-28,79.2,71.9,65.6,65.8,62.7,59.2,89,74,55,29.99,29.87,11,1,11,0.00
2012-5-29,74.0,68.7,63.7,67.7,64.9,62.5,100,88,71,29.92,29.77,8,0,8,0.00
2012-5-30,83.4,71.0,62.3,65.1,55.2,41.8,100,65,26,29.81,29.73,11,1,11,0.00
2012-5-31,78.8,67.8,56.7,64.9,56.7,48.2,86,68,56,29.86,29.73,17,0,17,0.00
2012-6-1,69.6,62.8,54.7,65.5,59.2,48.6,100,89,58,29.81,29.68,16,2,16,0.00
2012-6-2,70.4,58.1,47.7,52.5,45.3,33.0,90,65,27,29.92,29.78,12,2,12,0.00
2012-6-3,77.2,64.4,51.4,58.6,51.3,43.6,84,64,44,29.97,29.81,17,1,17,0.00
2012-6-4,75.1,65.9,59.5,65.0,59.8,54.7,100,82,54,29.81,29.69,11,1,11,0.00
2012-6-5,72.0,61.8,56.6,63.3,59.3,56.3,100,92,69,29.82,29.65,18,1,18,0.00
2012-6-6,70.3,61.1,53.5,60.7,56.9,53.2,100,87,65,29.94,29.78,8,1,8,0.00
2012-6-7,75.4,64.0,56.5,62.3,56.8,53.8,97,78,53,30.01,29.92,8,1,8,0.00
2012-6-8,79.4,66.0,54.7,64.0,57.8,52.3,99,77,45,30.04,29.93,11,1,11,0.00
2012-6-9,78.5,67.7,59.8,63.5,59.3,56.3,92,76,55,30.05,29.95,11,0,11,0.00
2012-6-11,67.8,65.5,62.9,67.6,65.2,62.9,100,99,95,30.04,29.96,7,1,7,0.00
2012-6-12,79.4,73.6,65.2,71.6,65.9,60.7,100,78,55,29.93,29.81,10,1,10,0.00
2012-6-13,80.3,67.0,60.2,69.6,62.5,59.5,99,86,61,29.93,29.87,8,1,8,0.00
2012-6-14,79.6,70.4,62.3,66.2,62.0,58.2,97,76,57,30.11,29.97,12,2,12,0.00
2012-6-15,76.3,66.5,60.7,66.5,61.5,56.6,100,85,67,30.18,30.02,9,0,9,0.00
2012-6-16,73.0,64.1,59.5,63.2,56.4,52.6,87,76,64,30.21,30.12,6,0,6,0.00
2012-6-20,84.0,77.5,67.9,68.2,65.5,62.8,86,67,52,30.13,30.02,10,0,10,0.00
2012-6-21,85.7,73.0,62.3,69.2,64.6,62.0,100,77,48,30.06,29.87,8,0,8,0.00
2012-6-22,85.3,70.8,64.2,69.9,65.9,62.4,100,86,56,29.92,29.81,11,1,11,0.00
2012-6-23,84.3,71.1,62.7,72.3,66.4,62.7,100,87,51,29.93,29.84,7,0,7,0.00
2012-6-24,83.4,73.1,63.9,71.7,67.3,63.3,100,83,60,29.95,29.83,8,0,8,0.00
2012-6-25,86.7,75.3,65.5,72.5,67.6,60.8,100,79,46,29.83,29.63,10,0,10,0.00
2012-6-26,82.6,72.1,63.5,66.9,60.8,55.4,87,69,51,29.81,29.66,10,0,10,0.00
2012-6-27,82.8,68.9,54.7,63.9,55.2,49.5,87,64,36,29.96,29.81,10,0,10,4.15
2012-6-28,92.3,74.3,56.2,68.3,58.7,53.1,91,62,38,30.03,29.89,7,1,7,322.50
2012-6-29,97.3,83.1,73.7,74.3,62.4,53.5,70,51,31,29.89,29.75,12,1,12,326.79
2012-6-30,97.1,82.2,69.4,73.7,66.9,60.8,81,62,32,29.86,29.77,7,0,7,326.83
2012-7-1,97.5,81.7,64.2,73.6,66.3,58.4,96,63,31,30.02,29.80,22,0,22,323.85
2012-7-2,83.0,71.1,62.3,71.2,66.0,61.8,100,86,59,30.07,29.93,14,1,14,232.77
2012-7-3,83.4,71.1,63.4,70.2,64.6,56.7,98,81,55,30.01,29.92,12,1,12,185.81
2012-7-4,83.8,69.9,62.3,73.3,66.5,62.3,100,90,58,30.02,29.92,18,1,18,103.34
2012-7-5,89.5,73.1,64.2,73.8,66.8,59.5,100,83,41,30.00,29.86,19,1,19,283.67
2012-7-6,84.9,70.1,61.5,73.8,66.2,59.0,100,89,56,30.00,29.89,11,1,11,21.45
2012-7-7,89.0,75.8,64.7,74.6,69.0,64.7,100,81,54,30.01,29.90,6,0,6,0.00
2012-7-8,88.6,74.7,67.3,75.4,69.4,63.0,100,85,53,29.98,29.87,12,1,12,0.00
2012-7-9,82.6,73.4,66.4,73.5,68.7,65.2,100,86,68,29.91,29.83,10,1,10,0.00
2012-7-10,81.1,70.1,65.3,70.6,66.8,63.2,100,90,63,29.96,29.85,11,1,11,0.00
2012-7-11,74.9,67.3,65.2,69.8,66.6,64.7,100,98,79,30.04,29.95,8,0,8,0.07
2012-7-12,67.1,65.0,64.3,67.1,64.7,63.8,100,99,95,30.09,30.00,10,0,10,0.00
2012-7-13,80.3,70.6,66.3,73.2,68.0,66.0,100,92,69,30.12,30.00,13,1,13,0.00
2012-7-14,79.9,70.9,65.0,71.3,68.4,65.0,100,92,70,30.16,30.05,11,1,11,0.00
2012-7-15,83.2,70.9,66.0,73.5,68.5,65.8,100,93,60,30.16,30.06,11,1,11,0.00
2012-7-16,85.1,71.4,66.0,74.3,68.2,65.2,100,90,62,30.08,29.91,10,1,10,0.00
2012-7-17,84.1,73.2,64.7,71.9,67.9,64.7,100,85,61,29.98,29.88,7,0,7,0.00
2012-7-18,87.2,72.4,66.1,72.3,67.9,60.4,100,87,46,29.99,29.88,8,0,8,0.00
2012-7-19,81.1,74.5,66.8,73.6,70.1,64.8,100,87,71,30.02,29.90,17,0,17,0.00
2012-7-20,83.6,75.5,67.9,72.1,68.9,64.4,97,81,65,29.94,29.84,11,1,11,0.00
2012-7-21,70.3,68.7,66.8,69.5,68.4,66.8,100,99,94,29.93,29.88,3,0,3,0.00
2012-7-23,87.2,80.7,68.9,73.7,69.4,65.8,94,70,52,30.17,30.01,17,1,17,0.00
2012-7-24,84.9,81.1,72.0,72.0,69.4,66.0,88,68,57,30.00,29.87,10,2,10,0.00
2012-7-25,88.4,82.8,69.4,76.3,71.8,66.7,93,70,55,29.95,29.83,10,1,10,0.00
2012-7-26,88.2,80.8,68.9,73.1,70.1,67.2,100,71,54,29.90,29.78,11,1,11,0.00
2012-7-27,85.7,78.3,72.5,73.0,68.4,65.6,81,72,61,29.88,29.78,14,0,14,0.00
2012-7-28,75.3,73.4,71.1,68.4,66.9,66.4,87,80,75,29.90,29.86,3,0,5,0.00
2012-7-30,84.5,76.8,67.8,70.8,67.3,63.6,96,73,53,29.94,29.84,9,0,10,0.00
2012-7-31,72.7,68.8,66.4,72.0,68.1,66.4,100,98,90,29.92,29.85,7,0,7,0.00
2012-8-1,82.6,73.2,61.8,71.3,66.3,61.8,100,81,58,29.92,29.82,7,2,7,0.00
2012-8-2,87.0,76.7,65.3,73.1,67.0,59.3,91,73,55,29.89,29.79,12,1,12,0.00
2012-8-3,81.6,74.4,66.3,73.4,69.7,65.4,100,86,66,29.97,29.83,12,0,12,0.00
2012-8-6,83.2,73.2,67.1,71.6,68.6,65.8,100,87,63,30.07,29.95,10,0,10,0.00
2012-8-7,76.3,69.2,66.6,73.3,68.7,66.6,100,98,81,30.00,29.90,9,0,9,0.00
2012-8-8,83.4,75.3,67.4,71.9,69.4,64.4,100,83,60,29.96,29.90,10,2,10,0.00
2012-8-9,79.9,70.4,63.9,72.3,68.1,63.9,100,93,76,29.96,29.83,13,1,13,0.00
2012-8-10,73.0,70.0,66.3,68.9,67.0,65.2,100,90,83,29.82,29.79,5,0,5,0.00
2012-8-13,79.0,67.3,58.1,64.8,59.7,52.8,100,79,47,30.01,29.92,8,1,8,0.00
2012-8-14,82.4,70.5,56.7,70.4,64.3,55.2,100,82,57,29.97,29.83,12,1,12,0.00
2012-8-15,81.1,70.9,61.5,67.8,62.0,54.1,100,76,50,29.96,29.82,13,1,13,0.00
2012-8-16,81.8,74.1,58.4,65.3,61.1,56.5,98,65,45,30.03,29.89,8,0,8,0.00
2012-8-17,75.6,72.2,62.9,67.4,65.3,60.8,95,79,71,29.90,29.81,7,1,7,0.00
2012-8-20,74.4,66.7,58.7,63.4,59.4,52.2,100,79,51,29.94,29.85,8,1,8,0.00
2012-8-21,77.4,64.8,54.5,65.5,58.8,53.9,99,82,52,30.02,29.93,6,0,6,0.00
2012-8-22,79.6,69.5,56.0,64.0,59.6,49.8,100,73,41,30.09,30.00,8,1,8,0.00
2012-8-23,80.1,67.2,60.2,66.3,62.8,59.3,100,87,55,30.11,30.02,7,0,7,0.00
2012-8-24,78.8,67.1,60.1,68.6,62.5,60.0,100,87,58,30.13,30.01,9,0,9,0.00
2012-8-25,82.0,66.3,59.0,69.1,62.5,59.0,100,89,58,30.14,30.00,11,0,11,0.00
2012-8-26,82.2,67.7,60.5,68.1,63.4,60.5,100,88,56,30.15,30.02,7,1,7,3.73
2012-8-27,82.8,74.0,61.2,69.6,65.2,61.2,100,75,61,30.11,29.95,8,1,8,0.00
2012-8-28,73.2,67.1,63.5,71.6,65.2,60.9,100,94,85,29.99,29.92,5,0,5,0.00
2012-8-29,77.2,69.3,65.8,74.4,68.4,65.8,100,97,81,29.97,29.88,6,0,6,0.00
2012-8-30,76.0,70.2,66.6,73.8,69.5,66.6,100,98,84,30.11,29.93,10,0,10,0.00
2012-8-31,83.4,72.0,65.2,73.9,68.6,65.2,100,90,66,30.20,30.07,7,0,7,0.00
2012-9-1,68.9,66.2,64.5,67.7,65.5,64.5,100,97,92,30.14,30.07,4,0,4,0.00
2012-9-4,70.6,68.8,66.6,70.4,68.7,66.6,100,99,96,29.90,29.84,8,0,8,0.00
2012-9-5,80.5,73.1,67.4,72.1,69.2,67.1,100,88,71,29.90,29.80,11,1,11,45.59
2012-9-6,84.7,73.1,66.0,71.7,66.2,59.0,100,81,47,29.91,29.81,8,0,8,0.00
2012-9-7,86.7,72.5,61.0,71.9,65.9,61.0,100,81,53,29.96,29.80,6,1,6,0.00
2012-9-8,72.0,68.6,66.6,68.4,67.3,66.2,100,96,84,29.80,29.73,7,0,7,0.00
2012-9-10,76.8,65.4,51.6,61.4,55.6,49.6,94,72,48,30.10,30.02,7,1,7,0.00
2012-9-11,73.7,64.5,55.1,61.2,57.7,54.0,99,80,61,30.22,30.08,10,0,10,0.00
2012-9-12,75.1,68.4,59.5,60.6,58.8,56.8,94,72,57,30.30,30.18,8,1,8,0.00
2012-9-13,73.0,64.6,56.9,58.8,55.2,52.1,95,73,55,30.30,30.19,9,1,9,0.00
2012-9-14,73.5,66.3,55.6,62.5,57.3,53.6,95,74,53,30.24,30.13,10,1,10,0.00
2012-9-17,72.5,66.5,62.3,66.5,64.9,62.3,100,95,80,29.99,29.82,12,2,12,0.00
2012-9-18,65.6,62.7,57.0,65.6,61.5,55.0,100,96,86,29.86,29.62,24,2,24,0.00
2012-9-19,72.8,62.7,49.4,60.4,55.2,49.1,100,78,61,30.03,29.86,7,1,7,0.00
2012-9-20,74.2,63.6,56.5,61.0,58.0,55.3,98,83,58,30.10,29.98,10,1,10,0.00
2012-9-21,78.1,63.3,52.5,63.6,57.6,52.5,100,84,52,30.08,29.92,14,1,14,0.00
2012-9-24,69.9,58.6,42.1,49.6,45.0,37.7,88,63,36,30.21,30.11,8,2,8,0.00
2012-9-25,77.9,58.2,44.9,62.1,51.6,43.3,96,80,54,30.23,30.11,12,1,12,0.00
2012-9-26,80.5,64.0,53.2,63.4,57.2,52.8,100,80,47,30.19,30.07,7,0,7,0.00
2012-9-27,77.9,64.9,53.1,64.6,58.1,52.9,100,80,52,30.20,30.06,6,0,6,0.00
2012-9-28,79.0,65.0,54.7,64.5,59.3,54.7,100,83,54,30.12,29.93,10,0,10,0.00
2012-9-29,62.9,61.8,61.2,59.8,59.5,59.3,95,92,89,29.98,29.95,0,0,0,0.00
2012-10-1,62.6,60.6,58.7,62.6,58.4,-99.9,100,99,100,29.76,29.63,14,2,14,0.00
2012-10-2,67.1,62.9,59.9,62.9,59.8,57.8,100,90,76,29.93,29.71,17,3,17,0.00
2012-10-3,72.7,61.1,55.6,59.5,55.9,49.6,100,85,48,30.17,29.93,10,1,10,0.00
2012-10-4,72.0,61.2,52.3,59.0,54.1,51.1,100,80,53,30.24,30.13,12,2,12,0.00
2012-10-5,75.3,60.2,46.8,60.5,53.3,46.0,100,80,50,30.21,30.00,8,1,8,0.00
2012-10-6,74.6,61.4,50.4,62.0,54.9,-99.9,100,83,61,30.02,29.85,14,1,14,0.00
2012-10-7,66.9,54.5,47.3,59.5,51.9,44.8,100,91,69,30.05,29.88,13,1,13,0.00
2012-10-8,50.4,47.3,45.5,48.8,46.7,44.4,100,98,90,30.15,30.01,7,1,7,0.00
2012-10-9,60.1,49.1,44.6,50.5,46.2,44.0,100,90,68,30.14,30.01,10,1,10,0.00
2012-10-10,60.7,50.1,40.2,52.8,45.5,40.2,100,86,67,30.13,30.05,12,1,12,0.00
2012-10-11,70.8,53.5,40.2,51.9,45.3,39.0,99,76,41,30.26,30.11,11,1,11,0.00
2012-10-12,71.5,57.9,47.9,58.5,51.1,42.3,90,79,63,30.24,30.13,13,1,13,0.00
2012-10-13,66.9,57.8,52.5,53.7,48.6,44.8,94,73,50,30.35,30.21,10,1,10,0.00
2012-10-14,65.3,57.1,51.7,59.2,53.4,46.6,98,88,78,30.27,29.98,17,2,17,0.00
2012-10-15,68.8,59.6,50.2,60.5,51.3,38.0,100,77,40,29.99,29.76,20,2,20,0.00
2012-10-16,66.9,53.8,44.5,46.8,40.2,30.1,86,63,27,29.95,29.83,11,3,11,0.00
2012-10-17,67.6,54.4,42.6,47.7,43.6,39.9,92,69,42,29.96,29.80,11,1,11,0.00
2012-10-18,62.9,55.5,51.9,61.6,52.9,43.1,100,91,70,29.83,29.74,14,3,14,0.00
2012-10-19,67.8,56.0,48.2,50.7,32.4,23.0,86,42,25,29.78,29.66,19,3,19,0.00
2012-10-20,62.4,53.3,44.9,42.8,39.1,31.5,75,59,45,29.94,29.72,12,2,12,0.00
2012-10-21,48.3,46.3,43.3,41.5,40.9,39.8,89,81,76,29.98,29.93,6,2,6,0.00
2012-10-22,76.5,63.4,44.6,51.9,48.5,41.3,89,61,38,30.23,30.08,12,2,12,0.00
2012-10-23,77.7,60.6,49.5,53.4,49.4,45.2,93,70,33,30.19,30.03,12,1,12,0.00
2012-10-24,79.6,61.1,48.5,52.9,47.3,41.7,94,65,27,30.19,30.01,14,2,14,0.00
2012-10-25,71.8,59.8,49.4,56.4,50.0,44.3,84,70,54,30.11,30.00,12,0,12,0.00
2012-10-26,66.6,60.3,56.7,56.4,54.5,52.5,90,81,69,30.04,29.98,7,0,7,0.00
2012-10-29,44.1,39.8,36.0,32.2,29.1,24.6,75,65,59,29.74,29.63,41,6,41,0.00
2012-10-30,42.5,38.1,34.6,30.6,26.8,22.0,76,63,55,29.73,29.53,18,1,18,0.00
2012-10-31,57.8,44.7,36.9,31.9,23.6,12.4,68,46,21,29.81,29.70,19,1,19,0.00
2012-11-1,56.7,43.9,33.4,26.6,16.0,0.2,67,36,11,29.93,29.77,19,2,19,0.00
2012-11-2,69.1,53.7,41.1,42.4,30.5,15.6,53,42,26,29.93,29.79,27,2,27,0.00
2012-11-3,74.6,57.0,41.9,52.5,36.8,18.1,68,48,24,30.07,29.92,17,2,17,0.00
2012-11-4,64.5,57.9,43.5,52.3,44.9,36.8,79,63,41,29.93,29.83,17,1,17,0.00
2012-11-5,55.7,46.2,37.2,36.8,31.8,20.6,82,60,27,30.05,29.92,13,2,13,0.00
2012-11-6,46.4,40.6,37.2,35.4,33.9,32.1,90,77,58,30.02,29.89,15,1,15,0.00
2012-11-7,43.8,37.0,36.2,39.6,35.7,33.1,100,95,74,29.92,29.84,12,0,12,0.00
2012-11-8,55.6,49.0,39.3,35.0,27.2,20.5,80,45,26,30.17,30.06,17,2,17,0.00
2012-11-9,66.1,49.3,34.3,33.6,28.9,21.3,80,49,21,30.30,30.15,7,0,7,0.00
2012-11-10,70.3,52.8,38.5,35.7,30.6,19.0,73,46,17,30.34,30.22,11,0,11,0.00
2012-11-11,53.5,51.1,49.1,32.6,32.1,31.4,52,48,43,30.30,30.27,4,0,4,0.00
2012-11-12,58.9,54.8,44.2,56.4,53.6,44.1,100,96,87,30.27,30.12,20,6,20,0.00
2012-11-13,53.8,44.3,35.6,44.1,33.9,27.0,100,70,40,30.34,30.15,18,4,18,0.00
2012-11-14,51.9,41.0,30.1,32.2,29.7,26.3,91,65,42,30.41,30.25,13,1,13,0.00
2012-11-15,55.9,43.6,36.2,42.7,37.3,29.6,94,79,59,30.27,30.16,12,1,12,0.00
2012-11-16,59.2,46.7,39.2,39.0,37.0,30.6,93,73,35,30.29,30.18,10,1,10,0.00
2012-11-26,66.0,56.3,49.1,30.0,23.8,17.0,47,29,22,30.17,30.07,13,2,13,0.00
2012-11-27,49.4,44.7,40.6,45.5,41.3,25.4,99,89,40,30.19,30.05,11,1,11,0.00
2012-11-28,51.4,42.3,36.2,39.3,28.5,17.4,98,64,27,30.36,30.17,12,2,12,0.00
2012-11-29,59.0,41.3,29.3,36.4,28.6,22.1,81,62,37,30.45,30.30,12,1,12,0.00
2012-11-30,61.2,44.2,32.1,40.5,34.7,28.8,89,71,42,30.40,30.22,9,0,11,0.00
2012-12-1,41.9,41.8,41.6,37.4,37.3,37.1,85,84,83,30.30,30.28,0,0,0,0.00
2012-12-4,68.1,60.4,52.2,49.7,47.8,45.9,81,64,47,30.27,30.11,17,3,17,0.00
2012-12-5,58.6,55.9,53.5,55.9,51.5,47.7,98,85,74,30.15,30.05,5,0,5,0.00
2012-12-6,51.9,48.3,44.9,38.9,36.7,34.9,74,64,55,30.19,30.09,8,0,8,0.00
2012-12-7,58.3,51.4,44.6,53.0,49.0,44.3,100,92,79,30.10,29.95,6,0,6,0.00
2012-12-8,55.6,50.2,48.8,50.5,48.0,46.9,96,92,82,30.00,29.94,6,0,6,0.00
2012-12-10,55.7,53.6,48.6,55.7,53.4,45.2,100,99,89,29.78,29.66,20,3,20,0.00
2012-12-11,48.8,38.8,34.4,45.5,35.3,32.1,98,87,74,30.14,29.73,15,3,15,0.00
2012-12-12,43.2,36.7,31.8,37.4,34.2,31.3,100,91,75,30.27,30.13,6,0,6,0.00
2012-12-13,53.2,40.2,30.9,39.4,33.7,28.3,100,79,55,30.37,30.20,9,1,9,0.00
2012-12-14,58.0,41.8,29.8,37.8,29.6,23.9,94,65,31,30.39,30.20,10,1,10,0.00
2012-12-15,40.5,39.3,37.5,29.8,28.2,24.5,72,64,53,30.21,30.14,6,0,6,0.00
2012-12-18,53.9,45.9,36.6,36.7,25.0,17.2,74,46,27,29.98,29.81,16,2,16,0.00
2012-12-19,63.2,47.8,34.7,42.0,34.1,22.1,76,60,41,30.09,29.96,8,1,8,0.00
2012-12-20,49.9,44.1,32.1,45.2,38.7,23.4,100,82,60,30.04,29.60,30,5,30,0.00
2012-12-21,37.6,31.6,27.6,24.7,17.5,10.2,74,56,45,30.06,29.74,30,5,30,0.00
2012-12-22,27.5,25.9,25.0,12.5,11.3,9.8,57,54,50,30.09,30.04,26,9,26,0.00
2012-12-26,44.6,36.4,29.4,43.5,32.7,24.6,96,86,79,29.79,29.45,27,4,27,0.00
2012-12-27,42.5,33.1,27.8,29.7,26.5,24.3,89,77,58,30.07,29.78,19,4,19,0.00
2012-12-28,46.8,37.1,28.8,34.4,30.7,26.2,96,78,58,30.13,29.89,13,2,13,0.00
2012-12-29,44.2,35.5,31.3,37.0,30.0,22.3,98,81,67,29.96,29.79,15,3,15,0.00
2012-12-30,45.2,36.4,26.1,22.2,17.8,11.1,69,49,25,30.41,30.31,16,2,16,0.00
2012-12-31,55.6,36.1,27.3,25.3,20.4,7.4,80,58,17,30.38,30.17,8,0,8,0.00